Time;durP1;ratioP1;P1;durP2;ratioP2;P2;SDS_P1;SDS_P2;PMS_P1;PMS_P2;Temp;Humidity;BMP_temperature;BMP_pressure;BME280_temperature;BME280_humidity;BME280_pressure;Samples;Min_cycle;Max_cycle;Signal;HPM_P1;HPM_P2
2022/11/23 00:02:01;;;;;;;5.40;1.93;;;;;;;3.38;97.66;94202.38;4961800;28;20205;-82
2022/11/23 00:04:27;;;;;;;5.43;1.53;;;;;;;3.42;97.95;94204.53;4931555;29;20217;-81
2022/11/23 00:06:52;;;;;;;6.00;2.17;;;;;;;3.41;97.70;94200.34;4938931;29;20202;-82
2022/11/23 00:09:18;;;;;;;6.57;1.90;;;;;;;3.37;97.22;94204.16;4914873;29;20201;-82
2022/11/23 00:11:43;;;;;;;5.30;1.70;;;;;;;3.33;97.71;94199.41;4955008;29;20201;-83
2022/11/23 00:14:09;;;;;;;5.30;2.00;;;;;;;3.39;97.26;94204.00;4940701;29;20189;-83
2022/11/23 00:16:35;;;;;;;7.33;1.60;;;;;;;3.43;96.58;94202.78;4959294;28;20741;-82
2022/11/23 00:19:00;;;;;;;3.13;2.00;;;;;;;3.19;97.46;94203.22;4938821;29;20277;-82
2022/11/23 00:21:27;;;;;;;5.20;1.70;;;;;;;3.18;98.11;94211.88;4927925;29;20776;-83
2022/11/23 00:23:53;;;;;;;4.20;1.40;;;;;;;3.16;96.85;94207.78;4938397;29;20210;-82
2022/11/23 00:26:18;;;;;;;6.90;1.93;;;;;;;3.14;97.34;94200.22;4917636;29;20194;-82
2022/11/23 00:28:44;;;;;;;7.33;2.10;;;;;;;3.11;97.05;94201.31;4938313;29;20191;-83
2022/11/23 00:31:12;;;;;;;6.50;2.20;;;;;;;3.10;96.32;94214.28;4925111;29;20196;-82
2022/11/23 00:33:37;;;;;;;6.27;1.60;;;;;;;3.04;96.54;94204.56;4936746;29;20251;-83
2022/11/23 00:36:12;;;;;;;5.63;1.87;;;;;;;2.96;96.51;94204.41;4942409;29;20190;-82
2022/11/23 00:38:38;;;;;;;6.20;2.27;;;;;;;2.96;96.53;94204.41;4935168;29;20186;-82
2022/11/23 00:41:05;;;;;;;3.83;1.47;;;;;;;2.80;98.45;94203.19;4938282;29;20190;-82
2022/11/23 00:43:31;;;;;;;5.97;2.00;;;;;;;2.78;97.57;94201.72;4935089;29;20741;-82
2022/11/23 00:46:24;;;;;;;7.13;1.43;;;;;;;2.75;98.82;94194.28;4930322;29;20196;-82
2022/11/23 00:48:51;;;;;;;3.23;1.60;;;;;;;2.81;97.88;94193.72;4955338;29;20187;-82
2022/11/23 00:51:19;;;;;;;4.13;1.60;;;;;;;2.82;97.08;94196.16;4957136;29;20178;-82
2022/11/23 00:53:45;;;;;;;4.23;1.80;;;;;;;2.78;97.25;94199.16;4946496;29;20194;-82
2022/11/23 00:56:11;;;;;;;6.43;1.70;;;;;;;2.73;97.37;94194.41;4938575;29;20196;-82
2022/11/23 00:58:39;;;;;;;3.37;1.53;;;;;;;2.75;96.43;94197.66;4934727;29;20189;-82
2022/11/23 01:01:06;;;;;;;4.33;2.33;;;;;;;2.74;97.33;94192.66;4913460;29;20221;-83
2022/11/23 01:03:31;;;;;;;5.20;1.60;;;;;;;2.65;97.11;94189.16;4955810;29;20284;-83
2022/11/23 01:06:14;;;;;;;6.17;1.80;;;;;;;2.66;98.21;94192.53;4938071;29;20213;-82
2022/11/23 01:08:40;;;;;;;5.60;1.90;;;;;;;2.62;97.43;94194.53;4963607;28;20257;-82
2022/11/23 01:11:08;;;;;;;5.00;1.70;;;;;;;2.58;97.51;94192.38;4958062;29;20259;-83
2022/11/23 01:13:34;;;;;;;4.00;1.83;;;;;;;2.51;97.70;94192.09;4940343;29;20201;-83
2022/11/23 01:16:00;;;;;;;3.73;1.80;;;;;;;2.52;97.87;94189.38;4944517;29;20273;-82
2022/11/23 01:18:25;;;;;;;5.57;1.97;;;;;;;2.45;98.05;94198.53;4919136;29;20185;-83
2022/11/23 01:20:51;;;;;;;5.90;1.90;;;;;;;2.45;98.68;94195.97;4940281;29;20805;-81
2022/11/23 01:23:16;;;;;;;5.43;1.83;;;;;;;2.31;99.60;94198.91;4938864;29;20289;-82
2022/11/23 01:25:42;;;;;;;5.97;2.33;;;;;;;2.37;98.71;94195.81;4954572;29;20206;-81
2022/11/23 01:28:07;;;;;;;6.83;1.83;;;;;;;2.42;98.15;94203.94;4932944;29;20877;-82
2022/11/23 01:30:33;;;;;;;5.83;2.00;;;;;;;2.33;98.48;94198.78;4930877;29;20190;-81
2022/11/23 01:32:59;;;;;;;3.50;1.60;;;;;;;2.39;98.44;94203.41;4939367;29;20598;-82
2022/11/23 01:35:24;;;;;;;5.77;1.63;;;;;;;2.31;99.00;94195.56;4931896;29;20195;-82
2022/11/23 01:37:49;;;;;;;3.43;1.63;;;;;;;2.35;98.96;94199.47;4938991;29;20202;-83
2022/11/23 01:40:15;;;;;;;5.83;2.60;;;;;;;2.38;98.69;94194.06;4939798;29;20276;-82
2022/11/23 01:42:53;;;;;;;3.07;1.60;;;;;;;2.34;98.73;94190.97;4941553;29;20217;-82
2022/11/23 01:45:52;;;;;;;3.67;1.83;;;;;;;2.33;99.30;94191.91;4940241;28;20213;-82
2022/11/23 01:48:25;;;;;;;4.60;1.60;;;;;;;2.28;99.19;94194.84;4954614;29;20694;-82
2022/11/23 01:50:51;;;;;;;5.80;1.73;;;;;;;2.23;100.00;94197.00;4933793;29;20202;-82
2022/11/23 01:53:17;;;;;;;5.93;1.77;;;;;;;2.42;99.32;94198.81;4938370;29;20209;-82
2022/11/23 01:55:44;;;;;;;5.97;1.67;;;;;;;2.46;98.96;94195.03;4936129;29;20193;-81
2022/11/23 01:58:11;;;;;;;6.30;2.43;;;;;;;2.50;98.57;94198.16;4940532;29;20193;-83
2022/11/23 02:00:36;;;;;;;2.73;1.70;;;;;;;2.50;98.25;94198.16;4941548;29;20186;-82
2022/11/23 02:03:03;;;;;;;5.37;1.20;;;;;;;2.50;99.08;94205.84;4956147;29;20933;-82
2022/11/23 02:05:34;;;;;;;4.37;1.53;;;;;;;2.49;98.76;94215.28;4941275;29;20636;-82
2022/11/23 02:08:00;;;;;;;3.37;1.23;;;;;;;2.54;98.29;94212.31;4947646;29;20210;-81
2022/11/23 02:10:25;;;;;;;4.77;1.60;;;;;;;2.55;97.59;94211.38;4940010;29;20182;-82
2022/11/23 02:12:52;;;;;;;4.53;1.20;;;;;;;2.48;98.73;94218.78;4913636;29;20213;-82
2022/11/23 02:15:17;;;;;;;5.30;1.63;;;;;;;2.45;98.56;94220.78;4935763;29;20181;-81
2022/11/23 02:17:43;;;;;;;3.53;1.77;;;;;;;2.51;98.25;94227.97;4932060;29;20210;-81
2022/11/23 02:20:10;;;;;;;5.00;1.80;;;;;;;2.49;97.61;94217.84;4954372;29;20234;-81
2022/11/23 02:22:51;;;;;;;4.70;1.70;;;;;;;2.35;97.89;94213.06;4915681;29;20716;-82
2022/11/23 02:25:44;;;;;;;3.57;1.30;;;;;;;2.18;99.39;94224.75;4936834;29;20307;-81
2022/11/23 02:28:15;;;;;;;4.30;1.47;;;;;;;2.14;99.88;94218.28;4939335;29;20285;-82
2022/11/23 02:30:43;;;;;;;6.87;1.70;;;;;;;2.09;100.00;94219.59;4934886;29;20186;-82
2022/11/23 02:33:08;;;;;;;3.63;1.70;;;;;;;2.07;100.00;94219.72;4930898;29;20250;-81
2022/11/23 02:35:33;;;;;;;3.67;1.53;;;;;;;2.04;100.00;94224.31;4936769;29;20198;-82
2022/11/23 02:38:01;;;;;;;4.13;1.43;;;;;;;2.08;100.00;94225.66;4928513;29;20206;-82
2022/11/23 02:40:30;;;;;;;4.67;1.53;;;;;;;2.22;98.83;94213.31;4934476;29;20186;-82
2022/11/23 02:42:55;;;;;;;4.43;2.30;;;;;;;2.22;98.77;94217.63;4953332;29;20229;-82
2022/11/23 02:45:49;;;;;;;2.77;1.50;;;;;;;2.29;98.16;94213.59;4936146;29;20252;-82
2022/11/23 02:48:15;;;;;;;6.47;1.63;;;;;;;2.25;97.69;94214.81;4936535;29;20192;-81
2022/11/23 02:50:41;;;;;;;4.00;1.50;;;;;;;2.19;97.91;94217.88;4953050;29;20242;-83
2022/11/23 02:53:06;;;;;;;3.03;1.27;;;;;;;2.22;97.67;94213.31;4916262;29;20206;-81
2022/11/23 02:55:31;;;;;;;4.67;1.33;;;;;;;2.24;97.36;94213.19;4911904;29;20250;-82
2022/11/23 02:57:56;;;;;;;4.53;1.80;;;;;;;2.23;96.73;94217.50;4922647;29;20186;-82
2022/11/23 03:00:22;;;;;;;4.70;1.47;;;;;;;2.24;96.83;94215.75;4952780;29;20198;-82
2022/11/23 03:02:47;;;;;;;4.57;1.63;;;;;;;2.22;97.17;94220.19;4936421;29;20601;-82
2022/11/23 03:05:12;;;;;;;1.83;1.57;;;;;;;2.29;97.18;94218.72;4930241;29;20214;-82
2022/11/23 03:07:38;;;;;;;2.80;1.37;;;;;;;2.28;97.53;94217.09;4935961;29;20252;-81
2022/11/23 03:10:04;;;;;;;1.83;1.50;;;;;;;2.33;97.28;94211.59;4936248;29;20211;-82
2022/11/23 03:12:29;;;;;;;3.43;1.30;;;;;;;2.29;97.14;94221.28;4955360;28;20220;-82
2022/11/23 03:14:55;;;;;;;4.57;1.80;;;;;;;2.36;96.70;94222.38;4951457;29;20189;-82
2022/11/23 03:17:20;;;;;;;2.50;1.53;;;;;;;2.40;96.89;94230.63;4915450;29;20225;-82
2022/11/23 03:19:45;;;;;;;5.27;2.63;;;;;;;2.41;96.47;94230.50;4911095;29;20187;-81
2022/11/23 03:22:10;;;;;;;2.77;1.70;;;;;;;2.38;96.77;94228.19;4936990;29;20210;-83
2022/11/23 03:24:36;;;;;;;6.80;1.90;;;;;;;2.31;97.22;94224.53;4933423;29;20572;-82
2022/11/23 03:27:01;;;;;;;4.83;1.77;;;;;;;2.32;97.32;94233.03;4936312;29;20194;-82
2022/11/23 03:29:26;;;;;;;4.53;1.70;;;;;;;2.39;97.60;94234.13;4962152;28;20222;-82
2022/11/23 03:31:53;;;;;;;5.03;1.47;;;;;;;2.45;97.22;94231.03;4935713;29;20214;-82
2022/11/23 03:34:18;;;;;;;4.03;1.80;;;;;;;2.46;97.58;94236.03;4936478;29;20186;-82
2022/11/23 03:36:43;;;;;;;6.27;1.70;;;;;;;2.46;97.28;94230.09;4950934;29;20200;-83
2022/11/23 03:39:09;;;;;;;1.80;1.53;;;;;;;2.51;97.74;94227.97;4936803;29;20193;-83
2022/11/23 03:41:34;;;;;;;4.00;1.30;;;;;;;2.57;97.51;94227.44;4922067;29;20190;-82
2022/11/23 03:43:59;;;;;;;2.87;1.40;;;;;;;2.63;96.76;94226.91;4933402;29;20214;-82
2022/11/23 03:46:24;;;;;;;4.07;1.50;;;;;;;2.60;95.77;94222.03;4939412;29;20210;-82
2022/11/23 03:48:50;;;;;;;3.27;1.40;;;;;;;2.54;95.53;94223.38;4913002;29;20194;-82
2022/11/23 03:51:15;;;;;;;8.07;1.63;;;;;;;2.46;96.00;94218.09;4941140;29;20598;-82
2022/11/23 03:53:40;;;;;;;6.33;1.60;;;;;;;2.46;96.34;94210.41;4941082;29;20273;-82
2022/11/23 03:56:06;;;;;;;6.40;1.80;;;;;;;2.39;97.11;94208.53;4931221;29;20190;-81
2022/11/23 03:58:31;;;;;;;4.33;1.60;;;;;;;2.40;97.03;94207.56;4938489;29;20201;-82
2022/11/23 04:00:57;;;;;;;5.13;1.60;;;;;;;2.34;98.28;94210.66;4939992;29;20195;-81
2022/11/23 04:03:22;;;;;;;2.53;1.70;;;;;;;2.37;98.34;94210.38;4939371;29;20210;-81
2022/11/23 04:05:47;;;;;;;3.30;1.60;;;;;;;2.48;98.47;94212.84;4937027;29;20206;-81
2022/11/23 04:08:13;;;;;;;3.83;1.40;;;;;;;2.55;98.07;94204.50;4954132;29;20218;-82
2022/11/23 04:10:38;;;;;;;4.30;1.50;;;;;;;2.60;98.29;94211.00;4953696;28;20205;-82
2022/11/23 04:13:03;;;;;;;4.87;1.70;;;;;;;2.70;97.65;94210.06;4953882;29;20281;-81
2022/11/23 04:15:29;;;;;;;6.03;1.43;;;;;;;2.75;97.52;94204.53;4937627;29;20189;-82
2022/11/23 04:17:54;;;;;;;2.57;1.40;;;;;;;2.80;97.41;94207.50;4939240;29;20185;-82
2022/11/23 04:20:19;;;;;;;6.00;1.40;;;;;;;2.86;97.52;94203.59;4937572;29;20194;-81
2022/11/23 04:22:45;;;;;;;5.43;1.50;;;;;;;2.88;97.56;94199.16;4939180;29;20725;-82
2022/11/23 04:25:10;;;;;;;5.10;1.57;;;;;;;2.97;97.26;94208.59;4952137;29;20721;-82
2022/11/23 04:27:35;;;;;;;4.03;1.60;;;;;;;3.02;97.64;94211.59;4915888;29;20244;-82
2022/11/23 04:30:01;;;;;;;4.17;1.63;;;;;;;3.06;97.24;94206.03;4939283;29;20203;-82
2022/11/23 04:32:26;;;;;;;1.43;1.17;;;;;;;3.15;97.23;94203.59;4936583;29;20217;-81
2022/11/23 04:34:51;;;;;;;3.57;1.43;;;;;;;3.17;96.08;94196.59;4930367;29;20285;-80
2022/11/23 04:37:17;;;;;;;4.90;1.67;;;;;;;3.18;95.85;94201.59;4935627;29;20214;-81
2022/11/23 04:39:42;;;;;;;4.37;1.30;;;;;;;3.31;95.66;94197.00;4935575;29;20633;-81
2022/11/23 04:42:10;;;;;;;5.40;1.53;;;;;;;3.27;95.27;94202.50;4953359;28;20705;-81
2022/11/23 04:44:35;;;;;;;5.03;1.30;;;;;;;3.28;94.84;94196.47;4916612;29;20214;-82
2022/11/23 04:47:00;;;;;;;4.97;1.70;;;;;;;3.26;94.61;94196.56;4954951;29;20693;-83
2022/11/23 04:49:26;;;;;;;5.60;1.60;;;;;;;3.22;94.79;94195.25;4931730;29;20193;-83
2022/11/23 04:51:51;;;;;;;5.93;1.40;;;;;;;3.28;94.81;94199.84;4933082;29;20186;-83
2022/11/23 04:54:16;;;;;;;7.20;1.73;;;;;;;3.25;94.52;94196.72;4964092;28;20201;-83
2022/11/23 04:56:41;;;;;;;3.73;1.47;;;;;;;3.12;94.82;94199.56;4955298;29;20189;-83
2022/11/23 04:59:07;;;;;;;5.57;1.50;;;;;;;3.16;94.59;94205.22;4956592;29;20198;-82
2022/11/23 05:01:32;;;;;;;2.17;1.33;;;;;;;3.16;94.52;94212.91;4937565;29;20200;-82
2022/11/23 05:03:57;;;;;;;6.03;1.73;;;;;;;3.05;94.82;94206.19;4937046;29;20217;-82
2022/11/23 05:06:22;;;;;;;5.40;1.47;;;;;;;3.06;94.61;94208.59;4953505;28;20190;-82
2022/11/23 05:08:48;;;;;;;4.33;1.53;;;;;;;3.02;94.51;94209.03;4952543;29;20665;-82
2022/11/23 05:11:13;;;;;;;4.80;1.40;;;;;;;3.00;95.11;94205.75;4913044;29;20238;-82
2022/11/23 05:13:38;;;;;;;3.87;1.47;;;;;;;3.02;95.12;94206.47;4937229;29;20218;-82
2022/11/23 05:16:04;;;;;;;5.83;1.70;;;;;;;2.97;95.03;94208.59;4915053;29;20727;-82
2022/11/23 05:18:29;;;;;;;7.33;1.83;;;;;;;2.98;95.27;94208.47;4936298;29;20218;-81
2022/11/23 05:20:54;;;;;;;6.53;1.80;;;;;;;2.97;95.26;94211.97;4947220;29;20192;-81
2022/11/23 05:23:20;;;;;;;6.23;2.03;;;;;;;2.92;95.69;94206.47;4925494;29;20517;-83
2022/11/23 05:25:45;;;;;;;7.97;2.00;;;;;;;2.81;96.37;94207.38;4949640;29;20311;-82
2022/11/23 05:28:15;;;;;;;4.43;2.30;;;;;;;2.82;96.15;94200.47;4918490;29;20277;-81
2022/11/23 05:30:40;;;;;;;4.53;1.87;;;;;;;2.81;96.59;94206.56;4934946;29;20237;-83
2022/11/23 05:33:05;;;;;;;7.70;1.67;;;;;;;2.80;96.63;94208.31;4951994;29;20217;-81
2022/11/23 05:35:31;;;;;;;6.63;1.90;;;;;;;2.87;97.12;94205.22;4937030;29;20764;-82
2022/11/23 05:37:56;;;;;;;5.10;1.93;;;;;;;2.83;96.76;94202.13;4951310;29;20285;-81
2022/11/23 05:40:21;;;;;;;9.03;1.60;;;;;;;2.78;97.12;94197.38;4936915;29;20250;-81
2022/11/23 05:42:47;;;;;;;3.73;1.70;;;;;;;2.80;97.61;94199.81;4934034;29;20218;-81
2022/11/23 05:45:12;;;;;;;4.83;1.80;;;;;;;2.82;97.44;94200.47;4934076;29;20225;-81
2022/11/23 05:47:38;;;;;;;6.33;1.87;;;;;;;2.89;96.89;94206.69;4934420;29;20662;-81
2022/11/23 05:50:04;;;;;;;7.10;3.17;;;;;;;2.92;97.18;94203.88;4951530;29;20280;-82
2022/11/23 05:52:29;;;;;;;12.43;6.73;;;;;;;2.88;97.74;94199.97;4948728;28;20588;-80
2022/11/23 05:54:54;;;;;;;16.60;7.20;;;;;;;2.87;97.79;94203.47;4934617;29;20249;-80
2022/11/23 05:57:21;;;;;;;12.37;5.13;;;;;;;2.90;97.29;94197.25;4935095;29;20260;-80
2022/11/23 05:59:46;;;;;;;31.87;12.23;;;;;;;2.93;97.62;94205.50;4935716;29;20206;-80
2022/11/23 06:02:12;;;;;;;32.27;13.97;;;;;;;2.97;98.01;94211.16;4933525;29;20209;-80
2022/11/23 06:04:37;;;;;;;13.30;4.90;;;;;;;2.96;98.10;94206.97;4934144;29;20256;-80
2022/11/23 06:07:02;;;;;;;9.13;3.70;;;;;;;3.05;97.74;94206.97;4927957;29;20201;-80
2022/11/23 06:09:27;;;;;;;11.20;3.90;;;;;;;3.06;97.33;94202.66;4936958;29;20224;-80
2022/11/23 06:11:53;;;;;;;7.87;3.50;;;;;;;3.17;97.06;94212.78;4939669;29;20198;-83
2022/11/23 06:14:18;;;;;;;6.73;2.47;;;;;;;3.02;97.03;94212.41;4938989;29;20237;-83
2022/11/23 06:16:43;;;;;;;6.10;2.40;;;;;;;3.08;97.11;94216.97;4916506;29;20273;-82
2022/11/23 06:19:09;;;;;;;6.60;2.30;;;;;;;3.15;97.00;94216.44;4941224;29;20221;-83
2022/11/23 06:21:34;;;;;;;4.83;2.07;;;;;;;3.16;96.24;94218.06;4936309;29;20205;-82
2022/11/23 06:23:59;;;;;;;7.93;2.03;;;;;;;3.14;96.56;94210.50;4937972;29;20292;-81
2022/11/23 06:26:24;;;;;;;4.00;1.97;;;;;;;3.08;97.21;94213.59;4955353;29;20265;-82
2022/11/23 06:28:50;;;;;;;6.23;2.77;;;;;;;3.05;96.81;94208.75;4957705;29;20194;-83
2022/11/23 06:31:15;;;;;;;5.70;2.37;;;;;;;3.05;96.53;94216.44;4955948;28;20204;-82
2022/11/23 06:33:40;;;;;;;10.00;2.17;;;;;;;3.03;96.69;94219.13;4955510;29;20225;-82
2022/11/23 06:36:06;;;;;;;8.40;2.50;;;;;;;3.05;96.15;94216.44;4953243;29;20236;-82
2022/11/23 06:38:32;;;;;;;4.73;2.43;;;;;;;3.15;95.56;94216.44;4925771;29;20760;-83
2022/11/23 06:40:58;;;;;;;8.07;2.17;;;;;;;3.05;95.55;94212.13;4957692;29;20731;-83
2022/11/23 06:43:24;;;;;;;5.40;2.33;;;;;;;2.82;97.23;94210.75;4941743;29;20670;-82
2022/11/23 06:45:49;;;;;;;5.17;1.80;;;;;;;3.09;95.61;94216.03;4940239;29;20226;-83
2022/11/23 06:48:14;;;;;;;6.70;2.00;;;;;;;3.02;95.02;94206.47;4923597;29;20196;-83
2022/11/23 06:50:39;;;;;;;5.50;2.00;;;;;;;3.03;95.41;94216.56;4933101;29;20602;-82
2022/11/23 06:53:05;;;;;;;5.30;1.70;;;;;;;2.98;94.78;94223.03;4934281;29;20616;-82
2022/11/23 06:55:30;;;;;;;6.17;2.33;;;;;;;2.94;95.42;94219.94;4949174;28;20240;-82
2022/11/23 06:57:55;;;;;;;10.37;2.20;;;;;;;2.98;95.12;94221.28;4924034;29;20189;-82
2022/11/23 07:00:21;;;;;;;9.47;1.70;;;;;;;2.92;94.62;94226.97;4917727;29;20186;-82
2022/11/23 07:02:55;;;;;;;7.57;1.80;;;;;;;2.93;95.35;94226.03;4935006;29;20213;-82
2022/11/23 07:05:21;;;;;;;6.93;2.20;;;;;;;2.97;94.70;94224.78;4912933;29;20210;-82
2022/11/23 07:07:46;;;;;;;7.77;1.83;;;;;;;3.00;93.88;94224.53;4912546;29;20690;-82
2022/11/23 07:10:12;;;;;;;6.53;2.07;;;;;;;3.04;93.95;94225.88;4912187;29;20189;-81
2022/11/23 07:12:38;;;;;;;9.37;1.90;;;;;;;3.09;93.89;94226.31;4929135;29;20218;-82
2022/11/23 07:15:03;;;;;;;6.20;1.80;;;;;;;3.06;93.98;94228.31;4947114;29;20178;-82
2022/11/23 07:17:29;;;;;;;6.00;1.63;;;;;;;3.09;93.97;94234.00;4934329;29;20194;-83
2022/11/23 07:19:54;;;;;;;6.43;1.87;;;;;;;3.03;94.41;94237.09;4911640;29;20199;-82
2022/11/23 07:22:19;;;;;;;5.90;1.70;;;;;;;3.10;94.41;94237.38;4924302;29;20207;-82
2022/11/23 07:24:45;;;;;;;7.17;1.97;;;;;;;3.17;93.60;94240.19;4948699;29;20579;-80
2022/11/23 07:27:11;;;;;;;6.83;2.20;;;;;;;3.26;93.46;94240.19;4935840;29;20213;-80
2022/11/23 07:29:36;;;;;;;7.17;2.00;;;;;;;3.19;94.37;94234.00;4933159;29;20197;-81
2022/11/23 07:32:02;;;;;;;7.70;2.10;;;;;;;3.25;93.36;94237.75;4931297;29;20223;-82
2022/11/23 07:34:27;;;;;;;7.20;1.80;;;;;;;3.28;93.50;94237.50;4933392;29;20675;-82
2022/11/23 07:36:53;;;;;;;4.27;1.90;;;;;;;3.40;92.79;94236.41;4930954;29;20205;-82
2022/11/23 07:39:18;;;;;;;8.13;1.70;;;;;;;3.48;92.32;94236.56;4932788;29;20245;-81
2022/11/23 07:41:43;;;;;;;9.20;2.10;;;;;;;3.58;91.37;94239.09;4952427;28;20199;-83
2022/11/23 07:44:09;;;;;;;5.83;1.93;;;;;;;3.65;91.11;94229.91;4932581;29;20203;-82
2022/11/23 07:46:34;;;;;;;9.37;2.53;;;;;;;3.57;91.09;94235.72;4933875;29;20622;-82
2022/11/23 07:49:01;;;;;;;8.10;3.63;;;;;;;3.51;91.71;94235.47;4916199;29;20664;-82
2022/11/23 07:51:29;;;;;;;4.57;2.20;;;;;;;3.73;90.19;94239.50;4927603;29;20193;-81
2022/11/23 07:53:54;;;;;;;5.53;1.70;;;;;;;3.72;90.80;94245.59;4930665;29;20318;-81
2022/11/23 07:56:20;;;;;;;8.23;2.17;;;;;;;3.81;89.86;94244.75;4925102;29;20678;-83
2022/11/23 07:58:45;;;;;;;10.33;3.70;;;;;;;3.76;90.16;94240.03;4928738;29;20192;-82
2022/11/23 08:01:16;;;;;;;5.43;2.87;;;;;;;4.00;89.31;94243.91;4931286;29;20202;-82
2022/11/23 08:03:42;;;;;;;7.70;2.43;;;;;;;3.90;89.92;94239.59;4933212;29;20593;-81
2022/11/23 08:06:12;;;;;;;9.27;2.33;;;;;;;4.03;89.18;94244.41;4933811;29;20191;-82
2022/11/23 08:08:37;;;;;;;5.63;1.80;;;;;;;4.08;89.48;94239.69;4953641;28;20190;-81
2022/11/23 08:11:07;;;;;;;5.70;1.83;;;;;;;4.16;89.37;94244.13;4932254;29;20543;-81
2022/11/23 08:13:33;;;;;;;6.87;2.10;;;;;;;4.15;89.19;94240.75;4925022;29;20337;-81
2022/11/23 08:15:59;;;;;;;11.20;1.87;;;;;;;4.20;89.69;94242.88;4935075;28;20631;-81
2022/11/23 08:18:24;;;;;;;5.97;1.47;;;;;;;4.34;88.61;94247.56;4946893;29;20270;-81
2022/11/23 08:20:50;;;;;;;5.87;1.60;;;;;;;4.43;88.34;94235.63;4924628;29;20196;-81
2022/11/23 08:23:15;;;;;;;7.70;2.13;;;;;;;4.46;88.31;94236.13;4935533;29;20251;-82
2022/11/23 08:25:40;;;;;;;4.97;2.20;;;;;;;4.49;88.65;94235.03;4922455;29;20232;-82
2022/11/23 08:28:06;;;;;;;6.93;2.33;;;;;;;4.53;88.86;94237.19;4931711;29;20188;-82
2022/11/23 08:30:32;;;;;;;5.33;1.70;;;;;;;4.58;88.81;94241.91;4910013;29;20676;-82
2022/11/23 08:32:57;;;;;;;9.87;2.03;;;;;;;4.66;87.90;94242.00;4932531;29;20406;-81
2022/11/23 08:35:23;;;;;;;3.90;1.43;;;;;;;4.81;87.48;94243.13;4930636;29;20678;-82
2022/11/23 08:37:48;;;;;;;7.00;1.80;;;;;;;4.88;87.35;94245.13;4947493;29;20196;-80
2022/11/23 08:40:14;;;;;;;5.30;1.47;;;;;;;4.93;87.28;94237.78;4915721;29;20205;-82
2022/11/23 08:42:39;;;;;;;9.57;1.87;;;;;;;5.03;87.31;94236.75;4932101;29;20205;-82
2022/11/23 08:45:05;;;;;;;9.40;1.83;;;;;;;5.09;86.32;94245.66;4931712;29;20221;-81
2022/11/23 08:47:31;;;;;;;4.80;1.90;;;;;;;5.06;86.26;94243.41;4922092;29;20277;-83
2022/11/23 08:49:56;;;;;;;6.43;1.90;;;;;;;5.16;86.58;94244.13;4947527;29;20208;-82
2022/11/23 08:52:22;;;;;;;8.87;1.93;;;;;;;5.14;86.42;94245.25;4925411;29;20218;-82
2022/11/23 08:54:47;;;;;;;7.37;1.70;;;;;;;5.13;87.01;94243.63;4903920;29;20663;-82
2022/11/23 08:57:12;;;;;;;4.93;1.87;;;;;;;5.21;86.16;94246.25;4931351;29;20194;-82
2022/11/23 08:59:37;;;;;;;6.27;1.70;;;;;;;5.37;85.59;94248.97;4911849;29;20204;-82
2022/11/23 09:02:03;;;;;;;8.73;2.43;;;;;;;5.40;84.80;94253.84;4931981;29;20213;-82
2022/11/23 09:04:29;;;;;;;5.10;2.40;;;;;;;5.38;85.02;94248.81;4947939;29;20213;-82
2022/11/23 09:06:55;;;;;;;7.53;2.43;;;;;;;5.38;84.65;94243.69;4931114;29;20606;-81
2022/11/23 09:09:20;;;;;;;4.00;2.20;;;;;;;5.30;84.68;94241.06;4928420;29;20658;-82
2022/11/23 09:11:46;;;;;;;6.63;1.87;;;;;;;5.29;84.72;94242.00;4932054;29;20205;-82
2022/11/23 09:14:11;;;;;;;7.40;2.20;;;;;;;5.38;83.58;94237.72;4933010;29;20194;-82
2022/11/23 09:16:36;;;;;;;7.93;2.40;;;;;;;5.47;84.06;94241.97;4933203;29;20213;-82
2022/11/23 09:19:02;;;;;;;5.80;1.83;;;;;;;5.50;83.75;94251.19;4946995;29;20587;-81
2022/11/23 09:21:32;;;;;;;9.90;2.70;;;;;;;5.56;83.22;94253.16;4913351;29;20229;-83
2022/11/23 09:23:57;;;;;;;5.90;2.10;;;;;;;5.55;83.43;94254.13;4922676;29;20682;-82
2022/11/23 09:26:23;;;;;;;6.87;2.00;;;;;;;5.71;82.91;94254.25;4944716;29;20204;-82
2022/11/23 09:28:48;;;;;;;5.50;1.53;;;;;;;5.74;82.99;94256.53;4954205;28;20239;-82
2022/11/23 09:31:13;;;;;;;13.67;6.93;;;;;;;5.73;82.31;94257.47;4942500;29;20198;-83
2022/11/23 09:33:39;;;;;;;7.97;2.27;;;;;;;5.69;81.38;94251.03;4930066;29;20229;-83
2022/11/23 09:36:04;;;;;;;7.87;2.10;;;;;;;5.86;80.73;94257.91;4952270;29;20248;-82
2022/11/23 09:38:30;;;;;;;5.20;2.20;;;;;;;5.90;81.29;94260.97;4927927;29;20189;-82
2022/11/23 09:41:14;;;;;;;6.63;2.20;;;;;;;5.79;81.30;94256.88;4918456;29;20252;-82
2022/11/23 09:44:24;;;;;;;7.63;2.17;;;;;;;5.88;80.41;94266.28;4934982;29;20198;-83
2022/11/23 09:47:25;;;;;;;5.97;2.70;;;;;;;5.91;80.96;94265.22;4931485;29;20190;-83
2022/11/23 09:50:07;;;;;;;6.53;2.20;;;;;;;5.89;79.84;94259.38;4924949;29;20623;-82
2022/11/23 09:52:34;;;;;;;6.50;2.67;;;;;;;6.03;79.62;94247.75;4941844;29;20251;-83
2022/11/23 09:55:02;;;;;;;6.93;2.60;;;;;;;6.11;79.60;94252.97;4916479;29;20205;-81
2022/11/23 09:57:30;;;;;;;3.13;2.13;;;;;;;6.08;79.43;94248.91;4920694;28;20194;-82
2022/11/23 10:00:16;;;;;;;6.77;3.77;;;;;;;6.19;79.22;94243.50;4916752;29;20733;-82
2022/11/23 10:02:41;;;;;;;6.73;2.40;;;;;;;6.25;79.05;94236.91;4933053;29;20303;-82
2022/11/23 10:05:20;;;;;;;5.47;2.57;;;;;;;6.27;78.87;94244.50;4931824;29;20725;-82
2022/11/23 10:08:14;;;;;;;6.40;2.50;;;;;;;6.20;78.74;94244.31;4926350;29;20204;-81
2022/11/23 10:10:43;;;;;;;5.37;2.03;;;;;;;6.01;78.87;94240.19;4942283;29;20190;-82
2022/11/23 10:13:15;;;;;;;6.60;2.33;;;;;;;6.05;79.46;94245.81;4919393;29;20286;-83
2022/11/23 10:15:53;;;;;;;4.70;1.80;;;;;;;6.32;78.43;94239.69;4931710;29;20190;-82
2022/11/23 10:18:24;;;;;;;7.70;2.43;;;;;;;6.24;78.10;94235.31;4934708;29;20715;-81
2022/11/23 10:21:02;;;;;;;5.20;1.93;;;;;;;6.38;77.59;94242.47;4939008;29;20554;-81
2022/11/23 10:23:47;;;;;;;4.63;2.03;;;;;;;6.40;77.47;94247.47;4948972;29;20210;-80
2022/11/23 10:26:15;;;;;;;5.97;1.97;;;;;;;6.41;76.87;94239.56;4933513;29;20181;-80
2022/11/23 10:28:40;;;;;;;6.00;2.20;;;;;;;6.43;76.90;94237.66;4926800;29;20178;-80
2022/11/23 10:31:13;;;;;;;4.00;1.90;;;;;;;6.61;76.31;94232.41;4938490;29;20196;-80
2022/11/23 10:34:08;;;;;;;4.23;1.80;;;;;;;6.43;76.12;94229.91;4932477;29;20213;-80
2022/11/23 10:36:35;;;;;;;3.87;1.53;;;;;;;6.49;74.34;94224.16;4936894;29;20281;-80
2022/11/23 10:39:01;;;;;;;4.30;1.60;;;;;;;6.72;74.68;94233.91;4928843;29;20539;-80
2022/11/23 10:41:28;;;;;;;3.50;1.87;;;;;;;6.77;74.44;94231.66;4934193;29;20576;-81
2022/11/23 10:44:11;;;;;;;5.10;2.00;;;;;;;6.73;75.06;94235.53;4950322;29;20206;-82
2022/11/23 10:46:38;;;;;;;5.13;1.80;;;;;;;6.63;75.45;94227.13;4938907;29;20196;-83
2022/11/23 10:49:14;;;;;;;6.27;2.17;;;;;;;6.79;74.41;94230.53;4934527;29;20190;-83
2022/11/23 10:51:48;;;;;;;8.43;2.10;;;;;;;6.84;73.54;94226.69;4936337;29;20290;-82
2022/11/23 10:54:21;;;;;;;3.80;1.67;;;;;;;6.71;72.46;94227.13;4952469;28;20181;-82
2022/11/23 10:56:48;;;;;;;6.50;2.63;;;;;;;6.73;73.69;94225.22;4947535;28;20617;-82
2022/11/23 10:59:36;;;;;;;2.87;1.73;;;;;;;6.85;72.47;94223.16;4932147;29;20217;-81
2022/11/23 11:02:21;;;;;;;6.03;3.27;;;;;;;6.73;72.85;94225.22;4946916;29;20588;-80
2022/11/23 11:04:49;;;;;;;7.57;5.20;;;;;;;6.86;72.54;94229.91;4947751;28;20244;-80
2022/11/23 11:07:21;;;;;;;3.47;2.50;;;;;;;6.97;72.08;94214.94;4929626;29;20189;-80
2022/11/23 11:09:54;;;;;;;5.20;2.23;;;;;;;7.05;71.68;94225.28;4946303;28;20200;-81
2022/11/23 11:12:19;;;;;;;4.30;1.90;;;;;;;6.90;71.19;94216.56;4947786;29;20198;-79
2022/11/23 11:15:02;;;;;;;5.13;1.67;;;;;;;7.06;70.36;94211.41;4927567;29;20257;-80
2022/11/23 11:17:33;;;;;;;5.33;2.10;;;;;;;7.04;70.01;94208.19;4931506;29;20213;-81
2022/11/23 11:20:00;;;;;;;3.10;2.10;;;;;;;7.04;69.96;94208.19;4929754;29;20205;-81
2022/11/23 11:22:34;;;;;;;3.87;1.60;;;;;;;7.18;69.72;94206.75;4947745;29;20709;-81
2022/11/23 11:25:01;;;;;;;3.83;1.90;;;;;;;7.06;69.44;94201.06;4935608;29;20217;-82
2022/11/23 11:27:28;;;;;;;3.47;1.47;;;;;;;7.31;68.90;94189.00;4946706;28;20237;-82
2022/11/23 11:30:03;;;;;;;7.10;2.17;;;;;;;7.24;68.78;94190.63;4928504;29;20185;-82
2022/11/23 11:32:37;;;;;;;3.73;1.80;;;;;;;7.35;68.19;94192.91;4934462;29;20264;-81
2022/11/23 11:35:07;;;;;;;5.27;1.73;;;;;;;7.42;69.25;94190.50;4953247;28;20277;-83
2022/11/23 11:37:38;;;;;;;3.03;1.70;;;;;;;7.48;67.96;94189.03;4931017;29;20627;-82
2022/11/23 11:40:25;;;;;;;3.40;2.17;;;;;;;7.52;67.88;94174.81;4932412;29;20186;-82
2022/11/23 11:42:56;;;;;;;4.00;1.90;;;;;;;7.34;67.60;94178.38;4926538;29;20209;-84
2022/11/23 11:45:33;;;;;;;9.47;1.80;;;;;;;7.30;68.55;94178.84;4953170;28;20210;-82